createdAt,value
2023-01-26T00:00:11.224Z,6.50
2023-01-26T00:01:29.908Z,5.90
2023-01-26T00:02:31.968Z,5.97
2023-01-26T00:03:34.258Z,6.53
2023-01-26T00:04:36.219Z,7.13
2023-01-26T00:05:39.034Z,6.60
2023-01-26T00:06:40.908Z,6.32
2023-01-26T00:07:45.671Z,6.38
2023-01-26T00:08:50.406Z,6.30
2023-01-26T00:09:52.341Z,6.45
2023-01-26T00:10:55.240Z,5.88
2023-01-26T00:11:57.250Z,7.03
2023-01-26T00:12:59.285Z,6.43
2023-01-26T00:14:01.258Z,6.95
2023-01-26T00:15:03.499Z,6.70
2023-01-26T00:16:10.019Z,6.63
2023-01-26T00:17:11.962Z,6.95
2023-01-26T00:18:14.053Z,6.55
2023-01-26T00:19:15.958Z,7.13
2023-01-26T00:20:18.055Z,6.32
2023-01-26T00:21:22.153Z,6.25
2023-01-26T00:23:28.764Z,5.65
2023-01-26T00:24:30.789Z,6.72
2023-01-26T00:25:32.778Z,5.82
2023-01-26T00:26:34.927Z,6.10
2023-01-26T00:27:37.703Z,6.55
2023-01-26T00:28:40.016Z,6.38
2023-01-26T00:29:42.246Z,6.57
2023-01-26T00:30:44.817Z,6.28
2023-01-26T00:31:46.854Z,6.18
2023-01-26T00:32:48.887Z,6.38
2023-01-26T00:33:52.069Z,6.57
2023-01-26T00:34:54.038Z,6.43
2023-01-26T00:35:56.205Z,5.95
2023-01-26T00:36:58.203Z,6.63
2023-01-26T00:38:00.216Z,6.03
2023-01-26T00:39:02.938Z,6.57
2023-01-26T00:40:05.373Z,6.30
2023-01-26T00:41:07.421Z,6.53
2023-01-26T00:42:14.127Z,6.05
2023-01-26T00:43:16.529Z,6.30
2023-01-26T00:44:18.472Z,6.65
2023-01-26T00:45:21.533Z,6.57
2023-01-26T00:46:23.582Z,5.00
2023-01-26T00:47:25.630Z,6.30
2023-01-26T00:48:27.607Z,6.15
2023-01-26T00:49:29.711Z,5.88
2023-01-26T00:50:31.763Z,6.50
2023-01-26T00:51:33.753Z,6.05
2023-01-26T00:52:35.714Z,5.88
2023-01-26T00:53:37.594Z,6.50
2023-01-26T00:54:39.655Z,7.07
2023-01-26T00:55:41.732Z,6.40
2023-01-26T00:56:43.744Z,6.65
2023-01-26T00:57:45.821Z,6.68
2023-01-26T00:58:47.786Z,6.57
2023-01-26T00:59:49.685Z,7.30
2023-01-26T01:00:53.671Z,5.68
2023-01-26T01:01:56.024Z,5.78
2023-01-26T01:02:58.864Z,6.68
2023-01-26T01:04:00.780Z,6.78
2023-01-26T01:05:02.644Z,6.20
2023-01-26T01:06:04.716Z,6.65
2023-01-26T01:07:06.706Z,6.55
2023-01-26T01:08:08.701Z,6.10
2023-01-26T01:09:10.894Z,6.70
2023-01-26T01:10:13.046Z,6.53
2023-01-26T01:11:15.415Z,6.30
2023-01-26T01:12:17.420Z,6.72
2023-01-26T01:13:19.434Z,6.60
2023-01-26T01:14:21.765Z,6.60
2023-01-26T01:15:28.076Z,5.70
2023-01-26T01:16:36.016Z,6.72
2023-01-26T01:17:38.122Z,7.18
2023-01-26T01:18:40.371Z,7.38
2023-01-26T01:19:42.849Z,7.10
2023-01-26T01:20:45.094Z,6.80
2023-01-26T01:23:24.040Z,6.60
2023-01-26T01:24:26.111Z,6.28
2023-01-26T01:25:28.055Z,6.70
2023-01-26T01:26:29.917Z,6.95
2023-01-26T01:27:31.867Z,6.25
2023-01-26T01:28:35.583Z,7.28
2023-01-26T01:29:37.553Z,6.75
2023-01-26T01:30:39.386Z,6.82
2023-01-26T01:31:44.138Z,6.72
2023-01-26T01:32:49.739Z,6.78
2023-01-26T01:33:53.552Z,6.95
2023-01-26T01:34:55.671Z,7.20
2023-01-26T01:36:06.002Z,6.20
2023-01-26T01:37:07.835Z,7.10
2023-01-26T01:38:09.645Z,6.88
2023-01-26T01:39:11.551Z,6.78
2023-01-26T01:40:13.821Z,7.28
2023-01-26T01:41:19.576Z,6.28
2023-01-26T01:42:22.324Z,7.10
2023-01-26T01:43:25.700Z,7.03
2023-01-26T01:44:27.851Z,6.40
2023-01-26T01:45:46.940Z,8.05
2023-01-26T01:47:19.961Z,7.00
2023-01-26T01:48:36.255Z,6.00
2023-01-26T01:50:04.445Z,6.20
2023-01-26T01:51:12.783Z,7.13
2023-01-26T01:52:18.807Z,7.07
2023-01-26T01:53:26.087Z,6.75
2023-01-26T01:54:40.111Z,7.82
2023-01-26T01:55:42.452Z,7.35
2023-01-26T01:56:50.639Z,7.25
2023-01-26T01:57:58.976Z,7.63
2023-01-26T01:59:03.937Z,6.88
2023-01-26T02:00:09.932Z,7.75
2023-01-26T02:01:12.799Z,7.93
2023-01-26T02:02:15.217Z,7.57
2023-01-26T02:03:19.715Z,8.30
2023-01-26T02:04:24.290Z,8.10
2023-01-26T02:05:33.558Z,7.53
2023-01-26T02:06:46.397Z,8.05
2023-01-26T02:07:50.622Z,6.93
2023-01-26T02:11:41.839Z,6.47
2023-01-26T02:12:44.838Z,5.53
2023-01-26T02:13:49.148Z,6.65
2023-01-26T02:14:53.329Z,7.32
2023-01-26T02:15:55.654Z,7.45
2023-01-26T02:17:00.413Z,7.35
2023-01-26T02:18:04.793Z,7.70
2023-01-26T02:19:18.124Z,7.38
2023-01-26T02:20:37.035Z,8.13
2023-01-26T02:21:40.143Z,8.80
2023-01-26T02:22:56.356Z,6.63
2023-01-26T02:24:07.542Z,7.68
2023-01-26T02:25:32.542Z,7.43
2023-01-26T02:26:38.569Z,7.05
2023-01-26T02:27:41.980Z,7.47
2023-01-26T02:28:47.119Z,7.88
2023-01-26T02:29:59.393Z,8.05
2023-01-26T02:31:07.355Z,7.93
2023-01-26T02:32:09.536Z,8.13
2023-01-26T02:33:29.281Z,7.50
2023-01-26T02:34:31.477Z,9.05
2023-01-26T02:35:34.442Z,7.88
2023-01-26T02:36:36.867Z,6.50
2023-01-26T02:37:41.270Z,7.97
2023-01-26T02:39:19.993Z,8.05
2023-01-26T02:40:48.812Z,8.35
2023-01-26T02:42:13.360Z,8.18
2023-01-26T02:43:32.090Z,7.45
2023-01-26T02:44:37.753Z,8.20
2023-01-26T02:45:41.574Z,6.85
2023-01-26T02:46:43.450Z,7.50
2023-01-26T02:47:45.605Z,8.23
2023-01-26T02:49:06.432Z,9.15
2023-01-26T02:50:10.154Z,7.90
2023-01-26T02:51:12.464Z,7.95
2023-01-26T02:52:16.277Z,9.23
2023-01-26T02:53:18.068Z,7.50
2023-01-26T02:54:38.375Z,7.53
2023-01-26T02:55:40.312Z,7.28
2023-01-26T02:56:42.259Z,7.43
2023-01-26T02:57:45.817Z,8.77
2023-01-26T02:58:47.764Z,7.63
2023-01-26T02:59:49.691Z,7.80
2023-01-26T03:00:51.767Z,8.68
2023-01-26T03:01:55.895Z,8.02
2023-01-26T03:03:00.884Z,8.25
2023-01-26T03:04:02.775Z,8.60
2023-01-26T03:05:04.943Z,7.53
2023-01-26T03:06:07.446Z,8.18
2023-01-26T03:07:09.666Z,9.52
2023-01-26T03:08:11.431Z,8.20
2023-01-26T03:09:13.387Z,8.05
2023-01-26T03:10:16.751Z,9.77
2023-01-26T03:11:18.627Z,8.02
2023-01-26T03:12:20.463Z,8.95
2023-01-26T03:13:22.298Z,8.25
2023-01-26T03:14:24.282Z,9.52
2023-01-26T03:15:43.042Z,9.68
2023-01-26T03:16:45.240Z,8.45
2023-01-26T03:17:47.142Z,9.18
2023-01-26T03:19:03.960Z,9.15
2023-01-26T03:21:46.291Z,7.75
2023-01-26T03:23:14.369Z,8.48
2023-01-26T03:24:35.003Z,8.15
2023-01-26T03:25:56.173Z,9.05
2023-01-26T03:27:16.691Z,8.27
2023-01-26T03:28:22.505Z,9.77
2023-01-26T03:29:26.743Z,8.73
2023-01-26T03:31:30.403Z,8.82
2023-01-26T03:32:32.407Z,9.05
2023-01-26T03:33:34.288Z,8.85
2023-01-26T03:34:36.357Z,9.02
2023-01-26T03:35:38.841Z,9.10
2023-01-26T03:36:40.673Z,8.13
2023-01-26T03:37:46.839Z,9.07
2023-01-26T03:38:48.708Z,8.70
2023-01-26T03:40:10.500Z,8.43
2023-01-26T03:41:31.329Z,8.40
2023-01-26T03:42:52.075Z,8.43
2023-01-26T03:44:12.560Z,7.57
2023-01-26T03:45:33.019Z,9.02
2023-01-26T03:46:53.669Z,8.65
2023-01-26T03:48:23.134Z,9.50
2023-01-26T03:49:43.744Z,9.07
2023-01-26T03:51:04.630Z,8.50
2023-01-26T03:52:25.256Z,9.57
2023-01-26T03:53:45.874Z,9.73
2023-01-26T03:55:06.601Z,8.65
2023-01-26T03:56:14.933Z,8.45
2023-01-26T03:57:17.079Z,7.75
2023-01-26T03:58:18.866Z,9.30
2023-01-26T03:59:38.408Z,10.90
2023-01-26T04:00:40.224Z,10.15
2023-01-26T04:02:03.414Z,10.25
2023-01-26T04:03:24.060Z,9.05
2023-01-26T04:04:44.757Z,8.85
2023-01-26T04:06:15.495Z,8.52
2023-01-26T04:07:36.939Z,8.77
2023-01-26T04:08:38.806Z,8.95
2023-01-26T04:09:40.703Z,10.70
2023-01-26T04:10:42.534Z,10.30
2023-01-26T04:11:44.488Z,9.60
2023-01-26T04:13:04.852Z,8.05
2023-01-26T04:14:25.495Z,9.18
2023-01-26T04:15:45.929Z,10.82
2023-01-26T04:17:06.750Z,9.60
2023-01-26T04:18:27.346Z,8.57
2023-01-26T04:19:48.146Z,8.27
2023-01-26T04:21:08.611Z,9.02
2023-01-26T04:22:10.477Z,7.95
2023-01-26T04:23:21.584Z,10.05
2023-01-26T04:24:24.845Z,10.65
2023-01-26T04:25:26.728Z,9.07
2023-01-26T04:26:37.541Z,10.63
2023-01-26T04:27:40.952Z,9.32
2023-01-26T04:28:42.773Z,9.57
2023-01-26T04:29:44.735Z,8.82
2023-01-26T04:30:46.641Z,9.60
2023-01-26T04:31:48.810Z,9.65
2023-01-26T04:32:51.347Z,11.48
2023-01-26T04:33:53.189Z,9.55
2023-01-26T04:34:55.247Z,9.77
2023-01-26T04:35:57.227Z,10.18
2023-01-26T04:36:59.233Z,10.98
2023-01-26T04:38:01.206Z,9.18
2023-01-26T04:39:03.779Z,10.10
2023-01-26T04:40:07.119Z,11.38
2023-01-26T04:41:09.299Z,10.35
2023-01-26T04:42:11.255Z,10.00
2023-01-26T04:43:13.068Z,9.18
2023-01-26T04:44:14.915Z,9.57
2023-01-26T04:45:16.715Z,10.00
2023-01-26T04:46:18.651Z,10.82
2023-01-26T04:47:21.373Z,11.70
2023-01-26T04:48:23.292Z,10.85
2023-01-26T04:49:25.117Z,10.57
2023-01-26T04:50:26.946Z,10.13
2023-01-26T04:51:28.916Z,10.77
2023-01-26T04:52:30.853Z,8.57
2023-01-26T04:53:34.102Z,9.73
2023-01-26T04:54:35.898Z,11.50
2023-01-26T04:55:37.698Z,10.18
2023-01-26T04:56:39.706Z,11.13
2023-01-26T04:57:41.743Z,10.63
2023-01-26T04:58:43.567Z,9.48
2023-01-26T04:59:45.428Z,10.00
2023-01-26T05:00:55.045Z,9.85
2023-01-26T05:01:57.060Z,11.00
2023-01-26T05:02:58.978Z,11.95
2023-01-26T05:04:02.868Z,9.98
2023-01-26T05:05:04.988Z,10.48
2023-01-26T05:06:07.036Z,10.10
2023-01-26T05:07:08.921Z,9.77
2023-01-26T05:08:11.169Z,9.43
2023-01-26T05:09:13.106Z,9.18
2023-01-26T05:10:15.967Z,10.32
2023-01-26T05:11:18.076Z,9.95
2023-01-26T05:12:35.030Z,9.35
2023-01-26T05:14:39.482Z,10.35
2023-01-26T05:15:41.307Z,9.63
2023-01-26T05:16:43.116Z,9.85
2023-01-26T05:17:45.363Z,9.85
2023-01-26T05:18:47.390Z,9.50
2023-01-26T05:19:49.208Z,8.63
2023-01-26T05:20:51.115Z,10.13
2023-01-26T05:21:52.993Z,9.85
2023-01-26T05:22:55.199Z,9.07
2023-01-26T05:23:57.232Z,9.13
2023-01-26T05:24:59.239Z,9.77
2023-01-26T05:26:01.236Z,9.43
2023-01-26T05:27:21.730Z,9.88
2023-01-26T05:28:23.648Z,10.48
2023-01-26T05:29:25.509Z,8.70
2023-01-26T05:30:27.719Z,9.00
2023-01-26T05:31:29.572Z,6.82
2023-01-26T05:32:31.928Z,9.73
2023-01-26T05:33:33.739Z,9.02
2023-01-26T05:34:35.548Z,9.32
2023-01-26T05:35:37.650Z,9.25
2023-01-26T05:36:39.673Z,10.07
2023-01-26T05:37:42.549Z,9.38
2023-01-26T05:38:44.414Z,10.35
2023-01-26T05:39:46.797Z,9.50
2023-01-26T05:40:48.766Z,10.20
2023-01-26T05:41:50.679Z,9.70
2023-01-26T05:42:53.665Z,8.93
2023-01-26T05:43:55.925Z,10.55
2023-01-26T05:44:57.891Z,10.25
2023-01-26T05:45:59.837Z,9.93
2023-01-26T05:47:01.794Z,10.32
2023-01-26T05:48:03.740Z,9.27
2023-01-26T05:49:05.637Z,10.23
2023-01-26T05:50:07.755Z,10.32
2023-01-26T05:51:09.732Z,10.30
2023-01-26T05:52:15.120Z,9.68
2023-01-26T05:53:17.088Z,9.57
2023-01-26T05:54:19.141Z,10.30
2023-01-26T05:55:21.009Z,7.57
2023-01-26T05:56:22.799Z,9.18
2023-01-26T05:57:24.657Z,9.60
2023-01-26T05:58:26.482Z,10.50
2023-01-26T05:59:28.694Z,10.20
2023-01-26T06:00:30.491Z,8.15
2023-01-26T06:01:32.372Z,10.10
2023-01-26T06:02:34.588Z,9.20
2023-01-26T06:03:37.619Z,9.70
2023-01-26T06:04:39.537Z,9.45
2023-01-26T06:05:42.305Z,9.10
2023-01-26T06:06:44.165Z,8.40
2023-01-26T06:07:45.970Z,8.05
2023-01-26T06:08:47.977Z,8.50
2023-01-26T06:09:49.932Z,9.95
2023-01-26T06:10:51.798Z,8.80
2023-01-26T06:11:53.725Z,9.50
2023-01-26T06:12:55.666Z,7.78
2023-01-26T06:13:57.639Z,8.88
2023-01-26T06:14:59.410Z,10.70
2023-01-26T06:16:02.180Z,10.18
2023-01-26T06:17:04.000Z,8.80
2023-01-26T06:18:05.853Z,9.63
2023-01-26T06:19:10.280Z,9.23
2023-01-26T06:20:13.745Z,8.48
2023-01-26T06:21:16.409Z,8.60
2023-01-26T06:22:18.404Z,9.02
2023-01-26T06:23:20.238Z,8.57
2023-01-26T06:24:24.092Z,8.57
2023-01-26T06:25:25.928Z,9.07
2023-01-26T06:26:27.955Z,8.93
2023-01-26T06:27:29.774Z,8.98
2023-01-26T06:28:32.074Z,10.30
2023-01-26T06:29:34.143Z,6.70
2023-01-26T06:30:36.283Z,9.70
2023-01-26T06:31:38.335Z,9.38
2023-01-26T06:32:40.244Z,8.95
2023-01-26T06:33:42.101Z,8.43
2023-01-26T06:34:44.004Z,8.32
2023-01-26T06:35:45.951Z,8.85
2023-01-26T06:36:47.965Z,9.27
2023-01-26T06:37:50.630Z,8.35
2023-01-26T06:38:56.924Z,9.65
2023-01-26T06:39:59.371Z,9.80
2023-01-26T06:41:04.912Z,9.52
2023-01-26T06:42:08.839Z,8.88
2023-01-26T06:43:10.837Z,7.95
2023-01-26T06:44:12.989Z,9.18
2023-01-26T06:45:15.339Z,9.82
2023-01-26T06:46:17.866Z,8.65
2023-01-26T06:47:19.884Z,9.80
2023-01-26T06:48:22.433Z,9.27
2023-01-26T06:49:24.254Z,10.18
2023-01-26T06:50:31.533Z,8.82
2023-01-26T06:51:45.431Z,10.25
2023-01-26T06:52:51.821Z,9.27
2023-01-26T06:53:58.420Z,11.02
2023-01-26T06:55:01.655Z,10.88
2023-01-26T06:56:03.705Z,10.25
2023-01-26T06:57:05.611Z,10.52
2023-01-26T06:58:07.755Z,10.38
2023-01-26T06:59:11.077Z,8.73
2023-01-26T07:00:14.051Z,9.63
2023-01-26T07:01:18.707Z,8.60
2023-01-26T07:02:22.140Z,11.15
2023-01-26T07:03:24.521Z,9.07
2023-01-26T07:04:27.716Z,10.00
2023-01-26T07:05:29.608Z,9.85
2023-01-26T07:06:31.735Z,10.43
2023-01-26T07:07:33.580Z,9.48
2023-01-26T07:08:35.525Z,9.50
2023-01-26T07:09:37.357Z,8.88
2023-01-26T07:10:39.479Z,10.23
2023-01-26T07:11:41.571Z,9.55
2023-01-26T07:12:47.196Z,8.77
2023-01-26T07:13:49.143Z,8.13
2023-01-26T07:14:53.824Z,8.95
2023-01-26T07:16:06.148Z,8.70
2023-01-26T07:17:08.039Z,8.57
2023-01-26T07:18:09.951Z,7.25
2023-01-26T07:19:11.752Z,8.70
2023-01-26T07:20:13.767Z,7.88
2023-01-26T07:21:20.874Z,8.98
2023-01-26T07:22:22.714Z,10.43
2023-01-26T07:23:24.566Z,9.90
2023-01-26T07:24:26.662Z,9.65
2023-01-26T07:25:28.829Z,9.50
2023-01-26T07:26:30.725Z,9.65
2023-01-26T07:27:32.566Z,8.85
2023-01-26T07:28:34.727Z,9.75
2023-01-26T07:29:36.550Z,8.20
2023-01-26T07:30:38.511Z,19.38
2023-01-26T07:31:41.802Z,10.77
2023-01-26T07:32:43.846Z,9.95
2023-01-26T07:33:45.717Z,10.63
2023-01-26T07:34:49.094Z,9.30
2023-01-26T07:35:54.322Z,8.98
2023-01-26T07:36:56.166Z,10.95
2023-01-26T07:37:59.216Z,9.50
2023-01-26T07:39:01.039Z,9.00
2023-01-26T07:40:03.832Z,9.45
2023-01-26T07:41:10.467Z,8.35
2023-01-26T07:42:13.320Z,8.90
2023-01-26T07:43:15.493Z,10.65
2023-01-26T07:44:17.458Z,9.57
2023-01-26T07:45:19.296Z,7.95
2023-01-26T07:46:21.887Z,9.15
2023-01-26T07:47:23.940Z,8.50
2023-01-26T07:48:25.891Z,9.30
2023-01-26T07:49:27.845Z,7.40
2023-01-26T07:50:29.840Z,9.48
2023-01-26T07:51:31.884Z,9.07
2023-01-26T07:52:34.035Z,8.90
2023-01-26T07:53:39.568Z,8.88
2023-01-26T07:54:41.529Z,8.95
2023-01-26T07:55:46.303Z,10.05
2023-01-26T07:56:52.127Z,7.82
2023-01-26T07:57:54.089Z,8.60
2023-01-26T07:58:56.304Z,9.93
2023-01-26T07:59:58.249Z,8.10
2023-01-26T08:01:09.118Z,8.65
2023-01-26T08:02:10.968Z,8.68
2023-01-26T08:03:14.009Z,7.63
2023-01-26T08:04:16.108Z,9.60
2023-01-26T08:05:17.973Z,10.02
2023-01-26T08:06:20.558Z,9.38
2023-01-26T08:07:22.663Z,8.88
2023-01-26T08:08:24.563Z,7.88
2023-01-26T08:09:26.683Z,8.45
2023-01-26T08:10:31.681Z,8.93
2023-01-26T08:11:33.684Z,9.23
2023-01-26T08:12:39.486Z,9.82
2023-01-26T08:13:42.763Z,8.57
2023-01-26T08:14:47.011Z,7.63
2023-01-26T08:15:49.181Z,8.32
2023-01-26T08:16:51.246Z,8.52
2023-01-26T08:17:56.198Z,8.25
2023-01-26T08:18:58.075Z,8.57
2023-01-26T08:20:00.483Z,8.18
2023-01-26T08:21:02.353Z,8.95
2023-01-26T08:22:04.400Z,8.35
2023-01-26T08:23:06.272Z,7.97
2023-01-26T08:24:08.481Z,8.63
2023-01-26T08:25:10.374Z,8.13
2023-01-26T08:26:14.111Z,9.02
2023-01-26T08:27:17.407Z,7.93
2023-01-26T08:28:21.143Z,8.57
2023-01-26T08:29:23.229Z,8.15
2023-01-26T08:30:24.988Z,8.10
2023-01-26T08:31:28.446Z,9.07
2023-01-26T08:32:32.551Z,9.48
2023-01-26T08:33:34.865Z,8.13
2023-01-26T08:34:36.973Z,8.32
2023-01-26T08:35:38.955Z,9.27
2023-01-26T08:36:40.961Z,8.95
2023-01-26T08:37:42.757Z,10.15
2023-01-26T08:38:45.137Z,7.85
2023-01-26T08:39:47.032Z,8.40
2023-01-26T08:40:52.150Z,8.88
2023-01-26T08:41:54.271Z,7.13
2023-01-26T08:42:56.294Z,9.38
2023-01-26T08:43:59.435Z,8.48
2023-01-26T08:45:01.410Z,8.52
2023-01-26T08:46:03.955Z,8.68
2023-01-26T08:47:05.837Z,7.82
2023-01-26T08:48:07.561Z,8.63
2023-01-26T08:49:09.591Z,8.02
2023-01-26T08:50:12.220Z,8.18
2023-01-26T08:51:14.274Z,8.48
2023-01-26T08:52:16.823Z,8.60
2023-01-26T08:53:18.732Z,8.00
2023-01-26T08:54:20.486Z,8.20
2023-01-26T08:55:22.564Z,7.80
2023-01-26T08:56:24.559Z,9.27
2023-01-26T08:57:26.829Z,8.50
2023-01-26T08:58:29.664Z,7.32
2023-01-26T08:59:31.466Z,8.63
2023-01-26T09:00:33.551Z,7.38
2023-01-26T09:01:35.365Z,7.38
2023-01-26T09:02:37.311Z,8.50
2023-01-26T09:03:39.641Z,7.30
2023-01-26T09:04:41.554Z,7.43
2023-01-26T09:05:43.812Z,7.00
2023-01-26T09:06:45.567Z,7.20
2023-01-26T09:07:47.432Z,7.72
2023-01-26T09:08:49.291Z,8.65
2023-01-26T09:09:51.358Z,7.93
2023-01-26T09:10:53.201Z,8.13
2023-01-26T09:11:56.388Z,7.50
2023-01-26T09:12:59.339Z,8.80
2023-01-26T09:14:01.287Z,7.43
2023-01-26T09:15:03.358Z,7.82
2023-01-26T09:16:15.870Z,6.75
2023-01-26T09:17:17.681Z,8.48
2023-01-26T09:18:19.567Z,7.80
2023-01-26T09:19:21.584Z,7.95
2023-01-26T09:20:23.461Z,8.68
2023-01-26T09:21:25.496Z,8.18
2023-01-26T09:22:27.356Z,7.35
2023-01-26T09:23:29.142Z,6.88
2023-01-26T09:24:30.978Z,7.80
2023-01-26T09:25:33.296Z,7.88
2023-01-26T09:26:35.212Z,8.73
2023-01-26T09:27:37.366Z,7.78
2023-01-26T09:28:39.297Z,7.70
2023-01-26T09:29:41.242Z,7.15
2023-01-26T09:30:43.192Z,7.47
2023-01-26T09:31:45.385Z,8.00
2023-01-26T09:32:47.319Z,7.07
2023-01-26T09:33:50.464Z,7.75
2023-01-26T09:34:52.515Z,8.07
2023-01-26T09:35:54.350Z,7.57
2023-01-26T09:36:56.246Z,7.82
2023-01-26T09:37:58.128Z,6.90
2023-01-26T09:39:00.457Z,8.25
2023-01-26T09:40:02.361Z,7.85
2023-01-26T09:41:18.709Z,7.93
2023-01-26T09:42:53.416Z,7.70
2023-01-26T09:44:04.321Z,5.63
2023-01-26T09:45:35.822Z,8.13
2023-01-26T09:47:01.640Z,6.53
2023-01-26T09:48:15.426Z,6.90
2023-01-26T09:49:23.075Z,7.30
2023-01-26T09:50:31.265Z,6.45
2023-01-26T09:51:42.840Z,7.07
2023-01-26T09:52:56.754Z,6.53
2023-01-26T09:54:06.041Z,7.15
2023-01-26T09:55:17.507Z,7.50
2023-01-26T09:56:22.512Z,7.63
2023-01-26T09:57:45.685Z,7.30
2023-01-26T09:58:56.222Z,5.18
2023-01-26T10:00:05.652Z,7.15
2023-01-26T10:01:21.056Z,7.60
2023-01-26T10:02:42.511Z,7.53
2023-01-26T10:03:50.752Z,6.22
2023-01-26T10:04:58.668Z,8.48
2023-01-26T10:06:03.381Z,6.45
2023-01-26T10:07:14.182Z,5.85
2023-01-26T10:08:19.003Z,6.60
2023-01-26T10:09:35.099Z,7.05
2023-01-26T10:10:42.104Z,7.25
2023-01-26T10:11:48.718Z,7.00
2023-01-26T10:12:51.837Z,6.80
2023-01-26T10:14:19.510Z,8.00
2023-01-26T10:15:21.382Z,6.65
2023-01-26T10:16:25.150Z,5.32
2023-01-26T10:17:42.618Z,5.82
2023-01-26T10:18:57.510Z,6.63
2023-01-26T10:20:06.472Z,6.80
2023-01-26T10:21:12.286Z,7.10
2023-01-26T10:22:54.946Z,7.05
2023-01-26T10:24:01.050Z,5.68
2023-01-26T10:25:14.615Z,6.68
2023-01-26T10:26:18.328Z,7.55
2023-01-26T10:27:20.296Z,7.45
2023-01-26T10:28:30.744Z,6.60
2023-01-26T10:29:32.625Z,6.88
2023-01-26T10:30:34.666Z,6.38
2023-01-26T10:31:36.540Z,6.78
2023-01-26T10:32:41.074Z,7.07
2023-01-26T10:33:51.761Z,6.60
2023-01-26T10:34:53.877Z,6.57
2023-01-26T10:35:55.849Z,6.68
2023-01-26T10:37:28.517Z,5.93
2023-01-26T10:38:33.311Z,5.75
2023-01-26T10:39:35.442Z,8.07
2023-01-26T10:40:45.596Z,6.95
2023-01-26T10:42:01.894Z,6.47
2023-01-26T10:43:04.253Z,6.47
2023-01-26T10:44:30.335Z,6.38
2023-01-26T10:45:33.769Z,6.35
2023-01-26T10:46:41.321Z,6.70
2023-01-26T10:47:43.173Z,6.03
2023-01-26T10:48:55.624Z,6.75
2023-01-26T10:50:25.611Z,4.85
2023-01-26T10:51:33.223Z,5.80
2023-01-26T10:52:35.161Z,6.88
2023-01-26T10:53:37.117Z,6.20
2023-01-26T10:54:39.775Z,5.95
2023-01-26T10:55:41.652Z,6.22
2023-01-26T10:56:49.318Z,6.00
2023-01-26T10:57:51.306Z,5.72
2023-01-26T10:58:57.464Z,5.85
2023-01-26T11:00:21.079Z,5.85
2023-01-26T11:01:27.780Z,5.80
2023-01-26T11:02:31.277Z,6.43
2023-01-26T11:03:33.618Z,6.78
2023-01-26T11:04:35.570Z,5.53
2023-01-26T11:05:37.583Z,6.07
2023-01-26T11:06:39.482Z,6.60
2023-01-26T11:07:44.154Z,4.95
2023-01-26T11:08:46.697Z,5.57
2023-01-26T11:09:49.900Z,6.38
2023-01-26T11:10:53.375Z,5.80
2023-01-26T11:12:08.126Z,6.63
2023-01-26T11:13:21.989Z,6.45
2023-01-26T11:14:25.526Z,6.80
2023-01-26T11:15:29.803Z,6.32
2023-01-26T11:16:32.674Z,6.57
2023-01-26T11:17:58.852Z,6.15
2023-01-26T11:19:28.458Z,5.32
2023-01-26T11:20:54.780Z,6.40
2023-01-26T11:22:07.599Z,5.90
2023-01-26T11:23:30.740Z,6.43
2023-01-26T11:26:06.076Z,5.97
2023-01-26T11:27:30.348Z,5.07
2023-01-26T11:28:57.190Z,5.15
2023-01-26T11:30:35.421Z,5.82
2023-01-26T11:32:19.227Z,4.60
2023-01-26T11:33:28.548Z,5.28
2023-01-26T11:35:02.545Z,6.63
2023-01-26T11:36:34.912Z,6.13
2023-01-26T11:37:40.655Z,6.90
2023-01-26T11:39:00.526Z,5.60
2023-01-26T11:40:38.230Z,6.57
2023-01-26T11:42:25.740Z,6.28
2023-01-26T11:43:45.936Z,4.53
2023-01-26T11:45:17.375Z,6.75
2023-01-26T11:46:57.817Z,5.78
2023-01-26T11:48:15.035Z,5.90
2023-01-26T11:49:33.672Z,5.43
2023-01-26T11:50:45.452Z,5.47
2023-01-26T11:52:08.807Z,6.18
2023-01-26T11:53:35.336Z,6.25
2023-01-26T11:54:55.944Z,6.03
2023-01-26T11:56:19.231Z,6.38
2023-01-26T11:58:57.992Z,6.43
2023-01-26T12:00:28.551Z,6.03
2023-01-26T12:02:07.625Z,6.22
2023-01-26T12:03:24.440Z,6.18
2023-01-26T12:04:26.378Z,5.72
2023-01-26T12:05:50.770Z,5.75
2023-01-26T12:07:03.778Z,7.07
2023-01-26T12:08:15.939Z,6.47
2023-01-26T12:09:27.232Z,5.63
2023-01-26T12:11:23.095Z,6.47
2023-01-26T12:13:26.428Z,6.63
2023-01-26T12:14:47.318Z,5.72
2023-01-26T12:15:58.328Z,5.72
2023-01-26T12:17:29.857Z,5.80
2023-01-26T12:18:58.669Z,5.47
2023-01-26T12:20:24.074Z,6.60
2023-01-26T12:21:26.960Z,6.53
2023-01-26T12:22:35.622Z,5.68
2023-01-26T12:24:03.220Z,6.35
2023-01-26T12:25:34.517Z,5.85
2023-01-26T12:26:44.430Z,6.30
2023-01-26T12:28:09.177Z,6.50
2023-01-26T12:29:32.595Z,5.20
2023-01-26T12:30:41.322Z,5.72
2023-01-26T12:31:53.360Z,6.45
2023-01-26T12:32:55.440Z,6.78
2023-01-26T12:33:57.711Z,6.47
2023-01-26T12:34:59.795Z,6.13
2023-01-26T12:36:05.333Z,6.93
2023-01-26T12:37:28.832Z,5.00
2023-01-26T12:39:01.184Z,6.93
2023-01-26T12:40:16.271Z,6.75
2023-01-26T12:41:27.178Z,7.18
2023-01-26T12:42:50.867Z,6.53
2023-01-26T12:44:21.311Z,6.47
2023-01-26T12:45:31.058Z,4.68
2023-01-26T12:46:39.849Z,7.07
2023-01-26T12:47:54.244Z,6.20
2023-01-26T12:49:03.066Z,6.55
2023-01-26T12:50:35.749Z,6.28
2023-01-26T12:51:44.273Z,5.43
2023-01-26T12:53:37.255Z,6.38
2023-01-26T12:54:51.321Z,6.15
2023-01-26T12:56:17.655Z,5.72
2023-01-26T12:57:25.051Z,5.78
2023-01-26T12:58:33.304Z,5.97
2023-01-26T12:59:46.641Z,7.57
2023-01-26T13:00:55.816Z,6.95
2023-01-26T13:01:58.688Z,5.47
2023-01-26T13:03:07.196Z,5.93
2023-01-26T13:04:12.325Z,5.13
2023-01-26T13:05:32.797Z,6.80
2023-01-26T13:06:34.939Z,5.57
2023-01-26T13:07:40.613Z,5.68
2023-01-26T13:08:57.952Z,5.85
2023-01-26T13:10:16.299Z,5.85
2023-01-26T13:11:40.076Z,5.63
2023-01-26T13:12:48.371Z,5.88
2023-01-26T13:13:57.386Z,6.05
2023-01-26T13:15:00.525Z,5.78
2023-01-26T13:16:17.644Z,5.70
2023-01-26T13:17:24.037Z,6.18
2023-01-26T13:18:53.387Z,5.95
2023-01-26T13:20:00.283Z,6.18
2023-01-26T13:21:02.310Z,5.90
2023-01-26T13:22:04.377Z,6.55
2023-01-26T13:23:28.313Z,6.57
2023-01-26T13:24:30.421Z,4.82
2023-01-26T13:25:32.961Z,6.78
2023-01-26T13:26:34.721Z,6.18
2023-01-26T13:27:39.361Z,6.15
2023-01-26T13:28:41.365Z,5.75
2023-01-26T13:29:55.427Z,6.07
2023-01-26T13:31:06.759Z,5.85
2023-01-26T13:32:08.730Z,5.78
2023-01-26T13:33:24.037Z,5.68
2023-01-26T13:34:35.410Z,6.28
2023-01-26T13:35:38.187Z,6.32
2023-01-26T13:36:44.539Z,5.55
2023-01-26T13:37:58.284Z,5.85
2023-01-26T13:39:04.581Z,5.95
2023-01-26T13:40:19.135Z,6.78
2023-01-26T13:41:22.288Z,5.70
2023-01-26T13:42:33.186Z,6.38
2023-01-26T13:43:44.963Z,5.00
2023-01-26T13:44:54.911Z,5.38
2023-01-26T13:46:09.095Z,6.25
2023-01-26T13:47:20.982Z,6.85
2023-01-26T13:48:36.973Z,6.22
2023-01-26T13:49:42.715Z,5.82
2023-01-26T13:50:50.191Z,5.88
2023-01-26T13:51:52.157Z,6.07
2023-01-26T13:52:54.032Z,5.50
2023-01-26T13:54:04.634Z,6.03
2023-01-26T13:56:23.766Z,6.40
2023-01-26T13:57:30.507Z,5.82
2023-01-26T13:58:33.107Z,6.25
2023-01-26T13:59:47.979Z,6.45
2023-01-26T14:01:06.526Z,6.13
2023-01-26T14:02:21.850Z,5.45
2023-01-26T14:03:24.358Z,4.57
2023-01-26T14:04:28.968Z,6.32
2023-01-26T14:05:32.124Z,6.65
2023-01-26T14:06:37.590Z,5.35
2023-01-26T14:07:43.602Z,5.70
2023-01-26T14:08:54.578Z,5.72
2023-01-26T14:10:01.383Z,5.32
2023-01-26T14:11:16.485Z,6.60
2023-01-26T14:12:29.874Z,5.57
2023-01-26T14:13:37.427Z,4.22
2023-01-26T14:14:40.685Z,6.15
2023-01-26T14:15:42.538Z,5.70
2023-01-26T14:16:44.561Z,5.75
2023-01-26T14:17:52.975Z,6.65
2023-01-26T14:19:05.427Z,5.18
2023-01-26T14:20:30.696Z,4.63
2023-01-26T14:21:35.317Z,5.70
2023-01-26T14:22:38.869Z,6.13
2023-01-26T14:23:40.735Z,5.80
2023-01-26T14:24:43.234Z,5.93
2023-01-26T14:25:56.327Z,6.28
2023-01-26T14:26:58.595Z,5.90
2023-01-26T14:28:00.608Z,4.85
2023-01-26T14:29:03.492Z,5.80
2023-01-26T14:30:33.561Z,7.13
2023-01-26T14:31:37.205Z,5.07
2023-01-26T14:32:39.530Z,5.15
2023-01-26T14:33:41.659Z,4.93
2023-01-26T14:34:55.266Z,5.82
2023-01-26T14:35:59.955Z,5.05
2023-01-26T14:37:14.363Z,6.47
2023-01-26T14:38:19.234Z,5.93
2023-01-26T14:39:21.344Z,5.30
2023-01-26T14:40:25.144Z,5.88
2023-01-26T14:41:30.221Z,5.47
2023-01-26T14:42:32.192Z,4.88
2023-01-26T14:43:34.116Z,5.50
2023-01-26T14:44:36.125Z,5.15
2023-01-26T14:45:40.371Z,5.55
2023-01-26T14:47:51.867Z,5.90
2023-01-26T14:49:18.078Z,5.55
2023-01-26T14:50:28.160Z,4.45
2023-01-26T14:51:32.523Z,4.85
2023-01-26T14:52:40.543Z,5.63
2023-01-26T14:53:54.370Z,5.70
2023-01-26T14:54:59.747Z,5.78
2023-01-26T14:56:01.675Z,5.72
2023-01-26T14:57:09.242Z,5.10
2023-01-26T14:58:41.592Z,4.43
2023-01-26T14:59:44.056Z,4.95
2023-01-26T15:00:49.941Z,5.07
2023-01-26T15:02:02.009Z,5.00
2023-01-26T15:03:29.052Z,6.07
2023-01-26T15:04:38.339Z,5.20
2023-01-26T15:05:44.073Z,4.88
2023-01-26T15:06:46.031Z,5.32